Time;durP1;ratioP1;P1;durP2;ratioP2;P2;SDS_P1;SDS_P2;PMS_P1;PMS_P2;Temp;Humidity;BMP_temperature;BMP_pressure;BME280_temperature;BME280_humidity;BME280_pressure;Samples;Min_cycle;Max_cycle;Signal;HPM_P1;HPM_P2
2023/06/17 00:01:20;;;;;;;1.92;1.73;;;24.50;36.70;;;;;;5021798;28;20037;-75
2023/06/17 00:03:46;;;;;;;2.83;1.70;;;24.40;36.70;;;;;;5053920;28;20493;-75
2023/06/17 00:06:11;;;;;;;2.15;1.50;;;24.40;36.80;;;;;;5054213;28;20130;-75
2023/06/17 00:08:37;;;;;;;2.35;1.90;;;24.30;36.80;;;;;;5037365;28;20128;-75
2023/06/17 00:11:03;;;;;;;1.98;1.65;;;24.30;36.90;;;;;;5036695;28;20450;-75
2023/06/17 00:13:29;;;;;;;2.38;1.88;;;24.20;36.90;;;;;;5054695;28;20029;-75
2023/06/17 00:15:59;;;;;;;2.13;1.63;;;24.20;37.00;;;;;;5037243;28;20166;-75
2023/06/17 00:18:25;;;;;;;2.10;1.70;;;24.20;37.70;;;;;;5053885;28;20044;-75
2023/06/17 00:20:52;;;;;;;2.63;1.80;;;24.10;37.10;;;;;;5053644;28;20032;-75
2023/06/17 00:23:21;;;;;;;1.83;1.52;;;24.10;37.20;;;;;;5036977;28;20025;-75
2023/06/17 00:25:50;;;;;;;2.17;1.77;;;24.00;37.20;;;;;;5053729;28;20029;-75
2023/06/17 00:28:16;;;;;;;2.20;1.65;;;24.00;37.20;;;;;;5037590;28;20029;-76
2023/06/17 00:30:45;;;;;;;3.58;2.05;;;24.00;37.30;;;;;;5036709;28;20033;-77
2023/06/17 00:33:11;;;;;;;2.30;1.80;;;24.00;37.40;;;;;;5054170;28;20465;-75
2023/06/17 00:35:37;;;;;;;2.28;1.88;;;23.90;37.40;;;;;;5037552;28;20036;-75
2023/06/17 00:38:02;;;;;;;2.63;1.98;;;23.80;37.40;;;;;;5037028;28;20033;-76
2023/06/17 00:40:28;;;;;;;2.60;1.85;;;23.80;37.50;;;;;;5020243;28;20044;-75
2023/06/17 00:42:54;;;;;;;2.95;2.00;;;23.80;37.60;;;;;;5036671;28;20029;-75
2023/06/17 00:45:20;;;;;;;2.67;2.00;;;23.80;37.70;;;;;;5036671;28;20037;-75
2023/06/17 00:47:46;;;;;;;2.00;1.60;;;23.70;37.70;;;;;;5053250;28;20398;-75
2023/06/17 00:50:14;;;;;;;2.28;1.95;;;23.60;37.80;;;;;;5053058;28;20040;-75
2023/06/17 00:52:43;;;;;;;2.33;1.80;;;23.60;37.90;;;;;;5037353;28;20091;-76
2023/06/17 00:55:10;;;;;;;2.08;1.80;;;23.60;38.00;;;;;;5053739;28;20025;-76
2023/06/17 00:57:37;;;;;;;2.55;1.70;;;23.50;38.00;;;;;;5053267;28;20032;-75
2023/06/17 01:00:06;;;;;;;3.03;1.80;;;23.50;38.00;;;;;;5053259;28;20380;-75
2023/06/17 01:02:32;;;;;;;2.55;1.92;;;23.50;38.20;;;;;;5053311;28;20063;-76
2023/06/17 01:05:01;;;;;;;2.33;1.60;;;23.40;38.30;;;;;;5036956;28;20423;-75
2023/06/17 01:08:08;;;;;;;2.67;1.77;;;23.40;38.40;;;;;;5053186;28;20473;-75
2023/06/17 01:11:04;;;;;;;2.08;1.83;;;23.30;38.50;;;;;;5035913;28;20075;-76
2023/06/17 01:13:33;;;;;;;3.50;1.98;;;23.30;38.60;;;;;;5036356;28;20033;-75
2023/06/17 01:16:01;;;;;;;1.80;1.55;;;23.20;38.60;;;;;;5052839;28;20036;-75
2023/06/17 01:18:29;;;;;;;3.03;2.10;;;23.20;38.80;;;;;;5035890;28;20035;-75
2023/06/17 01:20:56;;;;;;;2.75;1.92;;;23.20;38.90;;;;;;5053556;28;20037;-76
2023/06/17 01:23:37;;;;;;;2.45;2.00;;;23.20;39.00;;;;;;5037075;28;20404;-75
2023/06/17 01:26:04;;;;;;;2.80;1.92;;;23.10;39.10;;;;;;5035827;28;20032;-75
2023/06/17 01:28:31;;;;;;;2.40;1.85;;;23.00;39.00;;;;;;5035859;28;20025;-75
2023/06/17 01:30:57;;;;;;;2.63;2.00;;;23.10;39.20;;;;;;5019723;28;20430;-75
2023/06/17 01:33:24;;;;;;;2.55;1.90;;;23.00;39.20;;;;;;5052398;28;20117;-75
2023/06/17 01:36:01;;;;;;;2.90;2.03;;;23.00;39.30;;;;;;5053698;28;20021;-76
2023/06/17 01:38:34;;;;;;;2.45;1.92;;;22.90;39.40;;;;;;5052403;28;20106;-76
2023/06/17 01:41:14;;;;;;;2.88;2.10;;;22.90;39.50;;;;;;5035782;28;20031;-77
2023/06/17 01:43:42;;;;;;;2.38;1.90;;;22.80;39.50;;;;;;5035710;28;20470;-75
2023/06/17 01:46:11;;;;;;;1.90;1.73;;;22.80;39.50;;;;;;5019201;28;20036;-75
2023/06/17 01:48:38;;;;;;;2.55;1.80;;;22.80;39.70;;;;;;5052191;28;20037;-76
2023/06/17 01:51:06;;;;;;;2.65;2.15;;;22.70;39.70;;;;;;5051904;28;20053;-76
2023/06/17 01:53:33;;;;;;;2.30;1.65;;;22.70;40.30;;;;;;5035827;28;20123;-77
2023/06/17 01:55:59;;;;;;;3.85;2.17;;;22.60;39.70;;;;;;5035532;28;20113;-76
2023/06/17 01:58:25;;;;;;;2.38;1.88;;;22.60;39.80;;;;;;5051690;28;20504;-77
2023/06/17 02:00:50;;;;;;;2.28;2.05;;;22.60;39.80;;;;;;5035233;28;20035;-76
2023/06/17 02:03:17;;;;;;;2.63;2.10;;;22.50;39.80;;;;;;5035614;28;20344;-74
2023/06/17 02:05:43;;;;;;;3.22;2.30;;;22.50;39.80;;;;;;5035174;28;20025;-75
2023/06/17 02:08:12;;;;;;;2.25;1.98;;;22.50;40.00;;;;;;5053178;28;20063;-76
2023/06/17 02:10:38;;;;;;;2.47;2.03;;;22.40;40.00;;;;;;5052613;28;20037;-75
2023/06/17 02:13:04;;;;;;;2.67;2.10;;;22.40;40.00;;;;;;5052042;28;20033;-75
2023/06/17 02:15:32;;;;;;;3.55;2.35;;;22.40;40.10;;;;;;5035245;28;20433;-75
2023/06/17 02:17:59;;;;;;;3.17;2.28;;;22.30;40.10;;;;;;5051498;28;20029;-75
2023/06/17 02:20:26;;;;;;;2.80;2.13;;;22.30;40.20;;;;;;5051713;28;20040;-76
2023/06/17 02:22:52;;;;;;;2.35;1.90;;;22.20;40.20;;;;;;5034931;28;20033;-75
2023/06/17 02:25:18;;;;;;;2.38;1.90;;;22.20;40.20;;;;;;5018656;28;20029;-75
2023/06/17 02:27:44;;;;;;;2.42;2.03;;;22.20;40.30;;;;;;5034856;28;20025;-75
2023/06/17 02:30:10;;;;;;;3.42;2.35;;;22.10;40.30;;;;;;5051722;28;20108;-75
2023/06/17 02:32:36;;;;;;;3.00;2.30;;;22.10;40.30;;;;;;5051897;28;20484;-75
2023/06/17 02:35:02;;;;;;;2.88;1.95;;;22.00;40.40;;;;;;5055649;28;20037;-77
2023/06/17 02:37:28;;;;;;;3.30;2.40;;;22.00;40.50;;;;;;5055323;28;20120;-75
2023/06/17 02:39:55;;;;;;;2.55;2.00;;;22.00;40.60;;;;;;5039441;28;20032;-75
2023/06/17 02:42:23;;;;;;;3.10;2.20;;;21.90;40.60;;;;;;5039367;28;20025;-75
2023/06/17 02:44:48;;;;;;;2.53;2.03;;;21.80;40.70;;;;;;5056284;28;20120;-78
2023/06/17 02:47:14;;;;;;;3.17;2.40;;;21.80;40.70;;;;;;5056123;28;20426;-75
2023/06/17 02:49:40;;;;;;;2.63;2.03;;;21.80;41.40;;;;;;5022320;28;20401;-76
2023/06/17 02:52:06;;;;;;;3.13;2.30;;;21.70;40.90;;;;;;5055516;28;20119;-76
2023/06/17 02:54:32;;;;;;;3.50;2.45;;;21.70;40.90;;;;;;5039620;28;20037;-76
2023/06/17 02:57:00;;;;;;;3.25;2.40;;;21.70;41.00;;;;;;5055606;28;20025;-76
2023/06/17 02:59:25;;;;;;;2.42;2.00;;;21.60;41.10;;;;;;5055815;28;20029;-76
2023/06/17 03:01:54;;;;;;;2.80;2.13;;;21.60;41.10;;;;;;5039725;28;20354;-75
2023/06/17 03:04:20;;;;;;;3.35;2.25;;;21.60;41.20;;;;;;5039434;28;20040;-75
2023/06/17 03:06:46;;;;;;;3.50;2.47;;;21.50;41.20;;;;;;5038692;28;20029;-76
2023/06/17 03:09:12;;;;;;;2.90;2.17;;;21.50;41.20;;;;;;5055879;28;20037;-75
2023/06/17 03:11:39;;;;;;;2.90;2.20;;;21.50;41.30;;;;;;5038707;28;20025;-75
2023/06/17 03:14:06;;;;;;;3.25;2.40;;;21.40;41.30;;;;;;5055655;28;20384;-76
2023/06/17 03:16:34;;;;;;;4.10;2.50;;;21.40;41.30;;;;;;5055209;28;20121;-76
2023/06/17 03:19:02;;;;;;;3.83;2.53;;;21.30;41.40;;;;;;5055490;28;20061;-78
2023/06/17 03:21:30;;;;;;;3.53;2.50;;;21.30;41.40;;;;;;5038721;28;20466;-76
2023/06/17 03:24:01;;;;;;;4.03;2.70;;;21.20;41.40;;;;;;5038409;28;20025;-76
2023/06/17 03:26:28;;;;;;;3.65;2.72;;;21.20;41.50;;;;;;5037992;28;20033;-75
2023/06/17 03:28:56;;;;;;;3.58;2.58;;;21.20;41.50;;;;;;5055931;28;20412;-76
2023/06/17 03:31:22;;;;;;;3.90;2.70;;;21.20;41.60;;;;;;5055386;28;20470;-76
2023/06/17 03:33:51;;;;;;;4.80;2.60;;;21.10;41.70;;;;;;5021788;28;20039;-76
2023/06/17 03:36:18;;;;;;;4.22;2.90;;;21.10;41.70;;;;;;5037980;28;20035;-76
2023/06/17 03:38:45;;;;;;;3.72;2.67;;;21.00;41.70;;;;;;5054449;28;20035;-77
2023/06/17 03:41:11;;;;;;;3.78;2.80;;;21.00;41.80;;;;;;5021506;28;20033;-76
2023/06/17 03:43:37;;;;;;;3.72;2.65;;;21.00;41.90;;;;;;5054392;28;20033;-76
2023/06/17 03:46:03;;;;;;;3.42;2.80;;;21.00;41.90;;;;;;5037182;28;20462;-76
2023/06/17 03:48:29;;;;;;;4.18;2.67;;;20.90;42.60;;;;;;5054393;28;20037;-76
2023/06/17 03:50:56;;;;;;;3.10;2.50;;;20.90;42.00;;;;;;5053992;28;20114;-77
2023/06/17 03:53:21;;;;;;;3.63;2.90;;;20.90;42.00;;;;;;5037883;28;20048;-77
2023/06/17 03:55:48;;;;;;;4.10;2.47;;;20.90;42.10;;;;;;5038135;28;20155;-78
2023/06/17 03:58:14;;;;;;;3.45;2.83;;;20.80;42.10;;;;;;5037611;28;20060;-76
2023/06/17 04:00:43;;;;;;;4.22;2.97;;;20.80;42.20;;;;;;5037521;28;20036;-75
2023/06/17 04:03:11;;;;;;;4.43;2.95;;;20.80;42.40;;;;;;5053602;28;20037;-75
2023/06/17 04:05:38;;;;;;;3.58;2.80;;;20.70;42.40;;;;;;5037954;28;20375;-76
2023/06/17 04:08:06;;;;;;;3.92;2.80;;;20.70;42.40;;;;;;5054158;28;20055;-76
2023/06/17 04:10:33;;;;;;;4.25;2.97;;;20.70;42.40;;;;;;5053994;28;20573;-76
2023/06/17 04:12:59;;;;;;;3.53;2.83;;;20.60;42.40;;;;;;5053765;28;20120;-77
2023/06/17 04:15:25;;;;;;;3.55;2.72;;;20.60;42.40;;;;;;5037326;28;20086;-77
2023/06/17 04:17:51;;;;;;;3.50;2.72;;;20.60;42.50;;;;;;5020655;28;20033;-76
2023/06/17 04:20:17;;;;;;;3.92;3.10;;;20.60;42.60;;;;;;5020581;28;20064;-77
2023/06/17 04:22:43;;;;;;;3.60;3.00;;;20.50;42.60;;;;;;5037055;28;20045;-76
2023/06/17 04:25:11;;;;;;;4.32;2.85;;;20.50;42.70;;;;;;5037202;28;20036;-75
2023/06/17 04:27:38;;;;;;;4.28;3.10;;;20.50;42.80;;;;;;5021383;28;20484;-77
2023/06/17 04:30:08;;;;;;;3.88;3.00;;;20.50;42.80;;;;;;5053477;28;20048;-76
2023/06/17 04:32:35;;;;;;;3.80;2.88;;;20.50;42.90;;;;;;5021152;28;20052;-77
2023/06/17 04:35:05;;;;;;;3.20;2.88;;;20.50;42.90;;;;;;5037031;28;20029;-76
2023/06/17 04:37:36;;;;;;;4.25;2.88;;;20.40;42.90;;;;;;5022157;28;20488;-77
2023/06/17 04:40:12;;;;;;;3.78;2.83;;;20.40;42.90;;;;;;5069584;28;20041;-76
2023/06/17 04:42:40;;;;;;;4.25;2.97;;;20.40;43.00;;;;;;5070592;28;20039;-76
2023/06/17 04:45:08;;;;;;;3.95;3.00;;;20.40;43.00;;;;;;5053262;28;20043;-76
2023/06/17 04:47:35;;;;;;;5.95;3.58;;;20.40;43.10;;;;;;5037387;28;20061;-77
2023/06/17 04:50:02;;;;;;;3.72;2.72;;;20.40;43.10;;;;;;5020298;28;20217;-76
2023/06/17 04:52:29;;;;;;;3.90;3.08;;;20.30;43.10;;;;;;5053293;28;20140;-76
2023/06/17 04:54:56;;;;;;;4.07;3.10;;;20.40;43.20;;;;;;5037552;28;20041;-77
2023/06/17 04:57:22;;;;;;;3.45;2.80;;;20.30;43.30;;;;;;5019806;28;20378;-75
2023/06/17 04:59:50;;;;;;;4.03;3.00;;;20.30;43.30;;;;;;5036875;28;20045;-75
2023/06/17 05:02:16;;;;;;;4.60;3.47;;;20.30;43.30;;;;;;5053250;28;20032;-76
2023/06/17 05:04:43;;;;;;;4.32;3.20;;;20.30;43.30;;;;;;5053017;28;20489;-76
2023/06/17 05:07:09;;;;;;;5.10;3.15;;;20.30;43.30;;;;;;5019895;28;20033;-76
2023/06/17 05:09:37;;;;;;;4.03;3.25;;;20.30;43.40;;;;;;5053552;28;20041;-76
2023/06/17 05:12:03;;;;;;;4.65;3.25;;;20.20;43.30;;;;;;5053100;28;20037;-77
2023/06/17 05:14:30;;;;;;;4.55;3.30;;;20.30;43.40;;;;;;5035975;28;20021;-76
2023/06/17 05:16:55;;;;;;;3.97;3.03;;;20.20;43.40;;;;;;5036278;28;20090;-77
2023/06/17 05:19:21;;;;;;;4.45;3.33;;;20.20;43.40;;;;;;5036239;28;20044;-75
2023/06/17 05:21:47;;;;;;;3.75;2.80;;;20.20;43.50;;;;;;5019420;28;20028;-76
2023/06/17 05:24:16;;;;;;;4.15;3.22;;;20.20;43.50;;;;;;5036626;28;20038;-76
2023/06/17 05:26:42;;;;;;;4.45;3.50;;;20.20;43.50;;;;;;5035893;28;20040;-78
2023/06/17 05:29:08;;;;;;;4.35;3.40;;;20.20;43.50;;;;;;5052477;28;20124;-76
2023/06/17 05:31:36;;;;;;;4.32;3.10;;;20.20;43.60;;;;;;5052631;28;20053;-76
2023/06/17 05:34:02;;;;;;;4.75;3.38;;;20.20;43.70;;;;;;5036161;28;20048;-76
2023/06/17 05:36:28;;;;;;;4.40;3.40;;;20.20;43.70;;;;;;5036723;28;20060;-76
2023/06/17 05:38:55;;;;;;;4.18;3.28;;;20.20;44.00;;;;;;5036617;28;20029;-75
2023/06/17 05:41:21;;;;;;;4.93;3.63;;;20.20;44.10;;;;;;5035881;28;20385;-76
2023/06/17 05:43:48;;;;;;;4.72;3.40;;;20.20;44.20;;;;;;5036313;28;20029;-76
2023/06/17 05:46:14;;;;;;;5.55;3.60;;;20.20;44.40;;;;;;5035782;28;20037;-76
2023/06/17 05:48:40;;;;;;;4.65;3.78;;;20.20;44.50;;;;;;5035656;28;20073;-77
2023/06/17 05:51:06;;;;;;;5.13;3.85;;;20.20;44.60;;;;;;5019115;28;20052;-76
2023/06/17 05:53:32;;;;;;;4.47;3.65;;;20.20;44.60;;;;;;5051796;28;20086;-76
2023/06/17 05:55:58;;;;;;;5.00;3.80;;;20.20;44.50;;;;;;5020015;28;20076;-76
2023/06/17 05:58:24;;;;;;;4.88;3.80;;;20.20;44.60;;;;;;5052174;28;20466;-75
2023/06/17 06:01:02;;;;;;;5.00;3.65;;;20.20;44.70;;;;;;5052369;28;20037;-76
2023/06/17 06:03:28;;;;;;;5.22;3.55;;;20.20;44.60;;;;;;5035173;28;20168;-76
2023/06/17 06:05:54;;;;;;;4.82;3.72;;;20.20;44.70;;;;;;5035399;28;20242;-76
2023/06/17 06:08:19;;;;;;;4.22;3.33;;;20.30;44.90;;;;;;5034576;28;20032;-75
2023/06/17 06:10:45;;;;;;;4.50;3.50;;;20.30;45.00;;;;;;5019570;28;20033;-76
2023/06/17 06:13:11;;;;;;;4.47;3.67;;;20.20;45.50;;;;;;5018793;28;20524;-75
2023/06/17 06:15:37;;;;;;;4.25;3.38;;;20.30;45.00;;;;;;5035294;28;20083;-77
2023/06/17 06:18:05;;;;;;;4.97;3.47;;;20.30;45.10;;;;;;5035737;28;20119;-77
2023/06/17 06:20:32;;;;;;;5.20;3.30;;;20.30;45.20;;;;;;5035343;28;20064;-86
2023/06/17 06:22:58;;;;;;;4.70;3.75;;;20.30;45.20;;;;;;5051970;28;20405;-82
2023/06/17 06:25:25;;;;;;;4.75;3.38;;;20.30;45.40;;;;;;5051921;28;20025;-80
2023/06/17 06:27:51;;;;;;;4.50;3.60;;;20.30;45.30;;;;;;5035369;28;20086;-81
2023/06/17 06:30:18;;;;;;;3.97;3.17;;;20.40;45.30;;;;;;5018906;28;20124;-76
2023/06/17 06:32:47;;;;;;;4.28;3.25;;;20.30;45.20;;;;;;5052757;28;20480;-76
2023/06/17 06:35:14;;;;;;;4.38;3.40;;;20.40;45.20;;;;;;5018723;28;20032;-75
2023/06/17 06:37:40;;;;;;;4.50;3.10;;;20.40;45.30;;;;;;5034782;28;20029;-76
2023/06/17 06:40:06;;;;;;;4.20;3.00;;;20.40;45.30;;;;;;5035023;28;20071;-75
2023/06/17 06:42:35;;;;;;;4.07;3.00;;;20.40;45.20;;;;;;5035981;28;20079;-76
2023/06/17 06:45:22;;;;;;;4.00;2.95;;;20.40;45.10;;;;;;5037592;28;20067;-79
2023/06/17 06:47:48;;;;;;;3.97;2.80;;;20.40;45.00;;;;;;5017890;28;20053;-75
2023/06/17 06:50:14;;;;;;;3.92;3.00;;;20.40;45.00;;;;;;5034604;28;20044;-76
2023/06/17 06:52:40;;;;;;;3.88;2.72;;;20.40;45.00;;;;;;5034785;28;20033;-75
2023/06/17 06:55:06;;;;;;;4.20;2.95;;;20.50;45.10;;;;;;5034674;28;20029;-76
2023/06/17 06:57:32;;;;;;;3.80;2.88;;;20.50;45.10;;;;;;5018256;28;20037;-77
2023/06/17 06:59:58;;;;;;;3.13;2.50;;;20.50;45.10;;;;;;5051799;28;20375;-76
2023/06/17 07:02:24;;;;;;;4.95;2.83;;;20.50;45.10;;;;;;5035427;28;20469;-75
2023/06/17 07:04:51;;;;;;;3.45;2.65;;;20.60;45.10;;;;;;5034756;28;20056;-75
2023/06/17 07:07:22;;;;;;;4.07;2.95;;;20.50;45.00;;;;;;5051210;28;20037;-75
2023/06/17 07:09:48;;;;;;;3.80;2.60;;;20.60;44.90;;;;;;5050969;28;20037;-76
2023/06/17 07:12:13;;;;;;;3.70;2.50;;;20.60;44.90;;;;;;5051134;28;20041;-76
2023/06/17 07:14:39;;;;;;;3.15;2.50;;;20.60;44.80;;;;;;5035124;28;20036;-77
2023/06/17 07:17:06;;;;;;;3.70;2.90;;;20.70;44.90;;;;;;5052853;28;20051;-76
2023/06/17 07:19:32;;;;;;;3.22;2.63;;;20.60;44.90;;;;;;5052754;28;20075;-76
2023/06/17 07:21:57;;;;;;;4.05;2.97;;;20.70;44.90;;;;;;5056683;28;20029;-76
2023/06/17 07:24:25;;;;;;;3.20;2.42;;;20.70;44.80;;;;;;5024996;28;20033;-76
2023/06/17 07:26:51;;;;;;;3.95;2.20;;;20.80;44.70;;;;;;5039205;28;20037;-76
2023/06/17 07:29:18;;;;;;;3.72;2.70;;;20.80;44.60;;;;;;5038305;28;20041;-77
2023/06/17 07:31:44;;;;;;;2.65;2.13;;;20.90;44.50;;;;;;5038762;28;20539;-76
2023/06/17 07:34:09;;;;;;;3.15;2.42;;;20.90;44.40;;;;;;5037948;28;20481;-81
2023/06/17 07:36:35;;;;;;;3.22;2.30;;;21.00;44.30;;;;;;5039432;28;20375;-79
2023/06/17 07:39:01;;;;;;;4.30;2.70;;;21.00;44.20;;;;;;5054309;28;20398;-75
2023/06/17 07:41:27;;;;;;;3.10;2.33;;;21.10;44.10;;;;;;5054377;28;20036;-75
2023/06/17 07:43:53;;;;;;;3.45;2.63;;;21.10;44.00;;;;;;5021820;28;20029;-76
2023/06/17 07:46:18;;;;;;;2.88;2.40;;;21.20;43.90;;;;;;5054479;28;20500;-74
2023/06/17 07:48:44;;;;;;;3.10;2.42;;;21.30;43.90;;;;;;5054150;28;20025;-74
2023/06/17 07:51:10;;;;;;;2.38;2.17;;;21.30;43.80;;;;;;5054395;28;20056;-74
2023/06/17 07:53:36;;;;;;;3.28;2.38;;;21.40;43.80;;;;;;5054586;28;20094;-76
2023/06/17 07:56:02;;;;;;;2.30;2.00;;;21.50;43.80;;;;;;5054535;28;20108;-78
2023/06/17 07:58:27;;;;;;;2.72;2.08;;;21.60;43.70;;;;;;5022052;28;20058;-75
2023/06/17 08:00:53;;;;;;;3.20;2.40;;;21.70;43.60;;;;;;5055464;28;20032;-74
2023/06/17 08:03:20;;;;;;;2.22;2.00;;;21.70;43.40;;;;;;5037384;28;20025;-77
2023/06/17 08:05:46;;;;;;;2.83;2.28;;;21.80;43.30;;;;;;5054396;28;20033;-76
2023/06/17 08:08:12;;;;;;;2.83;2.10;;;21.90;43.30;;;;;;5054576;28;20029;-74
2023/06/17 08:10:38;;;;;;;2.67;1.92;;;22.00;43.20;;;;;;5037530;28;20064;-75
2023/06/17 08:13:03;;;;;;;3.22;2.33;;;22.00;43.10;;;;;;5055396;28;20033;-75
2023/06/17 08:15:29;;;;;;;2.83;2.03;;;22.10;43.00;;;;;;5053274;28;20393;-76
2023/06/17 08:17:55;;;;;;;4.55;2.15;;;22.20;42.90;;;;;;5054270;28;20036;-74
2023/06/17 08:20:21;;;;;;;2.92;2.13;;;22.30;42.90;;;;;;5054189;28;20032;-76
2023/06/17 08:22:47;;;;;;;2.25;1.92;;;22.40;42.90;;;;;;5053269;28;20049;-74
2023/06/17 08:25:13;;;;;;;2.67;2.20;;;22.50;42.80;;;;;;5054659;28;20083;-75
2023/06/17 08:27:40;;;;;;;2.50;2.10;;;22.60;42.90;;;;;;5036940;28;20107;-75
2023/06/17 08:30:07;;;;;;;2.53;2.00;;;22.60;42.80;;;;;;5053393;28;20041;-75
2023/06/17 08:32:32;;;;;;;2.85;2.30;;;22.80;42.80;;;;;;5053273;28;20507;-75
2023/06/17 08:35:05;;;;;;;2.25;2.00;;;22.90;42.80;;;;;;5053721;28;20039;-76
2023/06/17 08:37:31;;;;;;;3.00;2.33;;;23.00;42.80;;;;;;5038166;28;20029;-76
2023/06/17 08:39:56;;;;;;;2.28;2.00;;;23.10;42.80;;;;;;5053234;28;20041;-75
2023/06/17 08:42:22;;;;;;;3.08;2.15;;;23.20;42.80;;;;;;5054128;28;20060;-73
2023/06/17 08:44:50;;;;;;;2.67;2.10;;;23.30;42.80;;;;;;5053476;28;20029;-75
2023/06/17 08:47:17;;;;;;;2.72;1.80;;;23.30;42.80;;;;;;5053115;28;20082;-74
2023/06/17 08:49:46;;;;;;;2.70;2.00;;;23.50;42.80;;;;;;5053134;28;20045;-75
2023/06/17 08:52:14;;;;;;;2.30;1.83;;;23.60;42.80;;;;;;5054643;28;20057;-76
2023/06/17 08:54:40;;;;;;;2.78;2.10;;;23.60;42.70;;;;;;5054691;28;20044;-75
2023/06/17 08:57:12;;;;;;;2.53;1.98;;;23.80;42.80;;;;;;5053019;28;20518;-75
2023/06/17 08:59:38;;;;;;;2.83;1.92;;;23.90;42.80;;;;;;5053406;28;20057;-74
2023/06/17 09:02:05;;;;;;;3.00;2.15;;;24.00;42.80;;;;;;5053603;28;20138;-75
2023/06/17 09:04:31;;;;;;;2.22;1.92;;;24.10;42.80;;;;;;5053091;28;20033;-75
2023/06/17 09:06:57;;;;;;;2.67;2.08;;;24.20;42.80;;;;;;5037200;28;20151;-74
2023/06/17 09:09:23;;;;;;;2.65;2.10;;;24.30;42.70;;;;;;5036169;28;20601;-74
2023/06/17 09:11:50;;;;;;;2.58;2.10;;;24.40;42.70;;;;;;5053289;28;20044;-75
2023/06/17 09:14:22;;;;;;;2.65;2.05;;;24.50;43.40;;;;;;5052431;28;20052;-76
2023/06/17 09:16:49;;;;;;;1.90;1.65;;;24.60;42.80;;;;;;5054189;28;20025;-76
2023/06/17 09:19:15;;;;;;;3.17;2.17;;;24.70;42.80;;;;;;5035959;28;20076;-76
2023/06/17 09:21:41;;;;;;;2.80;2.22;;;24.80;42.80;;;;;;5052773;28;20460;-76
2023/06/17 09:24:11;;;;;;;2.33;1.95;;;24.90;42.70;;;;;;5036237;28;20474;-76
2023/06/17 09:26:42;;;;;;;2.05;1.77;;;25.00;42.80;;;;;;5036210;28;20025;-75
2023/06/17 09:29:13;;;;;;;3.63;2.00;;;25.10;42.90;;;;;;5036253;28;20076;-77
2023/06/17 09:31:57;;;;;;;2.72;2.13;;;25.20;43.00;;;;;;5053407;28;20102;-76
2023/06/17 09:34:25;;;;;;;;;;;25.40;43.00;;;;;;5052557;28;20166;-76
2023/06/17 09:37:01;;;;;;;2.35;1.67;;;25.40;42.50;;;;;;5052203;28;19909;-76
2023/06/17 09:39:29;;;;;;;2.33;1.83;;;25.60;42.60;;;;;;5054263;28;20039;-77
2023/06/17 09:41:56;;;;;;;2.20;1.83;;;25.70;42.70;;;;;;5051795;28;20039;-75
2023/06/17 09:44:23;;;;;;;2.38;2.03;;;25.70;42.80;;;;;;5051731;28;20343;-76
2023/06/17 09:46:49;;;;;;;2.53;1.95;;;25.80;42.80;;;;;;5053781;28;20025;-76
2023/06/17 09:49:23;;;;;;;2.60;2.10;;;25.90;42.90;;;;;;5069164;28;20561;-76
2023/06/17 09:51:51;;;;;;;2.08;1.73;;;26.10;42.90;;;;;;5036702;28;20128;-77
2023/06/17 09:54:22;;;;;;;2.20;1.98;;;26.10;42.80;;;;;;5052198;28;20039;-75
2023/06/17 09:56:50;;;;;;;2.47;1.73;;;26.20;42.80;;;;;;5052398;28;20032;-74
2023/06/17 09:59:18;;;;;;;2.85;2.00;;;26.30;42.90;;;;;;5035219;28;20477;-73
2023/06/17 10:01:44;;;;;;;2.50;1.90;;;26.40;42.80;;;;;;5051934;28;20028;-73
2023/06/17 10:04:10;;;;;;;2.47;2.10;;;26.50;43.50;;;;;;5052102;28;20036;-74
2023/06/17 10:06:39;;;;;;;2.78;2.05;;;26.60;42.80;;;;;;5035378;28;20124;-74
2023/06/17 10:09:11;;;;;;;2.35;1.90;;;26.70;42.90;;;;;;5052129;28;20377;-73
2023/06/17 10:11:40;;;;;;;2.10;1.75;;;26.80;42.80;;;;;;5053181;28;20044;-73
2023/06/17 10:14:17;;;;;;;2.00;1.80;;;26.90;42.90;;;;;;5051880;28;20033;-75
2023/06/17 10:16:48;;;;;;;2.00;1.77;;;27.00;42.80;;;;;;5052055;28;20079;-76
2023/06/17 10:19:17;;;;;;;2.35;1.90;;;27.20;42.80;;;;;;5052207;28;20082;-76
2023/06/17 10:21:47;;;;;;;2.80;2.10;;;27.20;42.70;;;;;;5034801;28;20033;-74
2023/06/17 10:24:14;;;;;;;2.40;1.90;;;27.30;42.60;;;;;;5051979;28;20037;-74
2023/06/17 10:26:40;;;;;;;2.33;2.00;;;27.40;42.60;;;;;;5035035;28;20021;-74
2023/06/17 10:29:08;;;;;;;2.30;1.90;;;27.50;42.60;;;;;;5051924;28;20052;-74
2023/06/17 10:31:39;;;;;;;2.13;1.75;;;27.60;42.60;;;;;;5053068;28;20032;-74
2023/06/17 10:34:05;;;;;;;2.45;1.90;;;27.70;42.50;;;;;;5052373;28;20040;-76
2023/06/17 10:36:36;;;;;;;2.92;1.83;;;27.80;42.50;;;;;;5053028;28;20033;-76
2023/06/17 10:39:13;;;;;;;2.47;1.80;;;27.90;42.50;;;;;;5051790;28;20041;-76
2023/06/17 10:41:38;;;;;;;1.95;1.75;;;28.00;42.60;;;;;;5052603;28;20040;-74
2023/06/17 10:44:35;;;;;;;2.10;1.67;;;28.10;42.60;;;;;;5035544;28;20028;-74
2023/06/17 10:47:03;;;;;;;2.28;1.90;;;28.10;42.50;;;;;;5051212;28;20025;-75
2023/06/17 10:49:41;;;;;;;2.50;1.92;;;28.30;42.40;;;;;;5052761;28;20044;-73
2023/06/17 10:52:14;;;;;;;2.22;2.03;;;28.40;42.60;;;;;;5051319;28;20049;-75
2023/06/17 10:54:49;;;;;;;2.30;1.90;;;28.50;42.50;;;;;;5036980;28;20029;-76
2023/06/17 10:57:15;;;;;;;2.55;2.03;;;28.50;42.50;;;;;;5056100;28;20170;-75
2023/06/17 10:59:40;;;;;;;3.08;1.95;;;28.60;42.40;;;;;;5038625;28;20065;-72
2023/06/17 11:02:07;;;;;;;2.00;1.80;;;28.70;42.50;;;;;;5056822;28;20419;-73
2023/06/17 11:04:35;;;;;;;2.67;2.10;;;28.70;42.50;;;;;;5056503;28;20039;-73
2023/06/17 11:07:05;;;;;;;2.13;1.90;;;28.80;42.60;;;;;;5056532;28;20064;-73
2023/06/17 11:09:33;;;;;;;2.13;1.90;;;28.80;42.50;;;;;;5056201;28;20051;-72
2023/06/17 11:12:02;;;;;;;2.00;1.80;;;28.90;42.60;;;;;;5056173;28;20070;-72
2023/06/17 11:14:28;;;;;;;2.83;2.03;;;29.00;42.70;;;;;;5055233;28;20075;-73
2023/06/17 11:16:54;;;;;;;2.50;1.85;;;29.00;42.60;;;;;;5056130;28;20025;-72
2023/06/17 11:19:20;;;;;;;2.58;1.90;;;29.00;42.60;;;;;;5038474;28;20040;-73
2023/06/17 11:22:03;;;;;;;2.65;2.17;;;29.00;42.70;;;;;;5055089;28;20079;-73
2023/06/17 11:24:33;;;;;;;2.28;1.60;;;29.10;42.80;;;;;;5056429;28;20101;-75
2023/06/17 11:27:00;;;;;;;2.17;1.70;;;29.10;42.80;;;;;;5055798;28;20025;-73
2023/06/17 11:29:27;;;;;;;2.17;1.80;;;29.10;42.80;;;;;;5055837;28;20033;-73
2023/06/17 11:31:59;;;;;;;2.50;2.00;;;29.20;42.90;;;;;;5038169;28;20104;-72
2023/06/17 11:34:31;;;;;;;2.63;2.00;;;29.20;43.00;;;;;;5055473;28;20033;-74
2023/06/17 11:37:00;;;;;;;2.28;1.92;;;29.20;42.70;;;;;;5054632;28;20033;-75
2023/06/17 11:39:29;;;;;;;2.25;1.90;;;29.20;42.50;;;;;;5054425;28;20037;-74
2023/06/17 11:42:01;;;;;;;2.55;1.85;;;29.20;42.40;;;;;;5054482;28;20029;-73
2023/06/17 11:44:28;;;;;;;1.55;1.45;;;29.30;42.40;;;;;;5056224;28;20032;-74
2023/06/17 11:46:56;;;;;;;2.50;1.73;;;29.30;42.50;;;;;;5037714;28;20029;-74
2023/06/17 11:49:28;;;;;;;2.47;1.85;;;29.30;42.40;;;;;;5053898;28;20048;-75
2023/06/17 11:51:54;;;;;;;2.05;1.83;;;29.30;42.30;;;;;;5055370;28;20045;-74
2023/06/17 11:54:25;;;;;;;2.25;1.83;;;29.30;42.20;;;;;;5054220;28;20496;-73
2023/06/17 11:56:50;;;;;;;2.45;1.73;;;29.30;41.80;;;;;;5054382;28;20029;-75
2023/06/17 11:59:20;;;;;;;2.30;1.90;;;29.40;41.50;;;;;;5037717;28;20123;-73
2023/06/17 12:01:46;;;;;;;2.85;1.95;;;29.40;41.20;;;;;;5055319;28;20056;-76
2023/06/17 12:04:15;;;;;;;2.65;2.00;;;29.40;41.10;;;;;;5054947;28;20029;-75
2023/06/17 12:06:42;;;;;;;2.33;1.80;;;29.40;41.00;;;;;;5052656;28;20033;-74
2023/06/17 12:09:08;;;;;;;1.83;1.60;;;29.40;41.00;;;;;;5054059;28;20140;-73
2023/06/17 12:11:38;;;;;;;2.33;1.80;;;29.40;41.10;;;;;;5055282;28;20032;-74
2023/06/17 12:14:13;;;;;;;2.80;1.80;;;29.40;41.10;;;;;;5054754;28;20469;-74
2023/06/17 12:16:41;;;;;;;2.33;1.70;;;29.40;41.10;;;;;;5053389;28;20473;-73
2023/06/17 12:19:13;;;;;;;1.80;1.60;;;29.40;41.20;;;;;;5054830;28;20363;-75
2023/06/17 12:21:39;;;;;;;1.92;1.67;;;29.40;41.20;;;;;;5054647;28;20108;-74
2023/06/17 12:24:05;;;;;;;2.05;1.85;;;29.40;40.80;;;;;;5037098;28;20060;-74
2023/06/17 12:26:34;;;;;;;2.22;1.90;;;29.50;40.70;;;;;;5053433;28;20053;-75
2023/06/17 12:29:01;;;;;;;2.15;1.63;;;29.50;40.50;;;;;;5053550;28;20061;-76
2023/06/17 12:31:26;;;;;;;2.35;1.83;;;29.50;40.50;;;;;;5037010;28;20044;-76
2023/06/17 12:33:52;;;;;;;2.38;1.80;;;29.50;40.50;;;;;;5053417;28;20032;-72
2023/06/17 12:36:18;;;;;;;2.00;1.65;;;29.50;40.60;;;;;;5053411;28;20029;-73
2023/06/17 12:38:45;;;;;;;2.20;1.85;;;29.50;40.60;;;;;;5054631;28;20052;-75
2023/06/17 12:41:11;;;;;;;2.00;1.80;;;29.50;40.50;;;;;;5053589;28;20104;-74
2023/06/17 12:43:38;;;;;;;2.25;1.92;;;29.50;40.50;;;;;;5053454;28;20033;-74
2023/06/17 12:46:05;;;;;;;1.95;1.70;;;29.50;40.60;;;;;;5053380;28;20040;-74
2023/06/17 12:48:36;;;;;;;2.95;1.92;;;29.50;40.50;;;;;;5054581;28;20039;-73
2023/06/17 12:51:06;;;;;;;1.95;1.75;;;29.50;40.60;;;;;;5054245;28;20458;-75